CheckWX is a tool to help pilots better visualize weather data.  It is not intended as a substitute for an official pre-flight weather briefing.

13:41:58 UTC

KGLH TAF
Greenville Mid-Delta Airport
Greenville, Mississippi, USA
KGLH 081722Z 0817/0918 23008KT P6SM FEW008 BKN015 FM081900 23008KT P6SM VCSH SCT015 BKN035 FM090000 21004KT P6SM SCT040 BKN080 FM091000 21005KT 6SM SHRA OVC007

Jul-8@
17:00 UTC

Jul-8 @ 17:00 UTC

Jul-8@
19:00 UTC

Jul-8 @ 19:00 UTC

TAF KGLH 081722Z 0817/0918 23008KT P6SM FEW008 BKN015

Expired

Wind
  • 230° at 8 KTS
Cloud Levels
  • Few at 800' AGL
  • Broken at 1,500' AGL

Jul-8@
19:00 UTC

Jul-8 @ 19:00 UTC

Jul-9@
00:00 UTC

Jul-9 @ 00:00 UTC

FM081900 23008KT P6SM VCSH SCT015 BKN035

Expired

Wind
  • 230° at 8 KTS
Conditions
Area Showers
Cloud Levels
  • Scattered at 1,500' AGL
  • Broken at 3,500' AGL

Jul-9@
00:00 UTC

Jul-9 @ 00:00 UTC

Jul-9@
10:00 UTC

Jul-9 @ 10:00 UTC

FM090000 21004KT P6SM SCT040 BKN080

Expired

Wind
  • 210° at 4 KTS
Cloud Levels
  • Scattered at 4,000' AGL
  • Broken at 8,000' AGL

Jul-9@
10:00 UTC

Jul-9 @ 10:00 UTC

Jul-9@
18:00 UTC

Jul-9 @ 18:00 UTC

FM091000 21005KT 6SM SHRA OVC007

From

From Standard forecast or significant change

Wind
  • 210° at 5 KTS
Conditions
Showers, Rain
Cloud Levels
  • Overcast at 700' AGL